sensor_id;sensor_type;location;lat;lon;timestamp;P1;durP1;ratioP1;P2;durP2;ratioP2
33858;SDS011;20156;47.486;12.074;2023-02-13T00:00:30;14.97;;;10.47;;
33858;SDS011;20156;47.486;12.074;2023-02-13T00:02:56;16.53;;;11.33;;
33858;SDS011;20156;47.486;12.074;2023-02-13T00:05:21;13.30;;;10.30;;
33858;SDS011;20156;47.486;12.074;2023-02-13T00:07:47;17.00;;;11.50;;
33858;SDS011;20156;47.486;12.074;2023-02-13T00:10:12;16.00;;;11.03;;
33858;SDS011;20156;47.486;12.074;2023-02-13T00:12:38;17.03;;;11.40;;
33858;SDS011;20156;47.486;12.074;2023-02-13T00:15:03;15.03;;;11.03;;
33858;SDS011;20156;47.486;12.074;2023-02-13T00:17:29;17.77;;;11.03;;
33858;SDS011;20156;47.486;12.074;2023-02-13T00:19:55;26.33;;;15.50;;
33858;SDS011;20156;47.486;12.074;2023-02-13T00:22:20;34.77;;;18.80;;
33858;SDS011;20156;47.486;12.074;2023-02-13T00:24:46;20.93;;;13.10;;
33858;SDS011;20156;47.486;12.074;2023-02-13T00:27:11;22.07;;;14.07;;
33858;SDS011;20156;47.486;12.074;2023-02-13T00:29:36;27.23;;;15.20;;
33858;SDS011;20156;47.486;12.074;2023-02-13T00:32:02;24.67;;;14.87;;
33858;SDS011;20156;47.486;12.074;2023-02-13T00:34:28;18.10;;;12.27;;
33858;SDS011;20156;47.486;12.074;2023-02-13T00:36:53;22.23;;;12.67;;
33858;SDS011;20156;47.486;12.074;2023-02-13T00:39:18;19.83;;;13.30;;
33858;SDS011;20156;47.486;12.074;2023-02-13T00:41:44;23.67;;;13.50;;
33858;SDS011;20156;47.486;12.074;2023-02-13T00:44:09;22.40;;;12.93;;
33858;SDS011;20156;47.486;12.074;2023-02-13T00:46:35;19.43;;;12.97;;
33858;SDS011;20156;47.486;12.074;2023-02-13T00:49:01;21.57;;;13.47;;
33858;SDS011;20156;47.486;12.074;2023-02-13T00:51:26;20.27;;;13.83;;
33858;SDS011;20156;47.486;12.074;2023-02-13T00:53:52;21.33;;;12.87;;
33858;SDS011;20156;47.486;12.074;2023-02-13T00:56:17;20.10;;;11.83;;
33858;SDS011;20156;47.486;12.074;2023-02-13T00:58:43;15.93;;;11.30;;
33858;SDS011;20156;47.486;12.074;2023-02-13T01:01:09;15.70;;;11.17;;
33858;SDS011;20156;47.486;12.074;2023-02-13T01:03:35;14.40;;;9.77;;
33858;SDS011;20156;47.486;12.074;2023-02-13T01:06:00;15.40;;;10.13;;
33858;SDS011;20156;47.486;12.074;2023-02-13T01:08:26;13.50;;;9.67;;
33858;SDS011;20156;47.486;12.074;2023-02-13T01:10:52;12.03;;;9.67;;
33858;SDS011;20156;47.486;12.074;2023-02-13T01:13:18;14.50;;;10.10;;
33858;SDS011;20156;47.486;12.074;2023-02-13T01:15:44;15.53;;;10.90;;
33858;SDS011;20156;47.486;12.074;2023-02-13T01:18:14;14.50;;;10.67;;
33858;SDS011;20156;47.486;12.074;2023-02-13T01:20:41;15.30;;;10.53;;
33858;SDS011;20156;47.486;12.074;2023-02-13T01:23:08;19.17;;;12.33;;
33858;SDS011;20156;47.486;12.074;2023-02-13T01:25:34;19.17;;;13.23;;
33858;SDS011;20156;47.486;12.074;2023-02-13T01:28:03;17.83;;;11.17;;
33858;SDS011;20156;47.486;12.074;2023-02-13T01:30:28;15.63;;;11.33;;
33858;SDS011;20156;47.486;12.074;2023-02-13T01:32:54;20.83;;;11.67;;
33858;SDS011;20156;47.486;12.074;2023-02-13T01:35:19;20.43;;;12.43;;
33858;SDS011;20156;47.486;12.074;2023-02-13T01:37:45;20.20;;;13.10;;
33858;SDS011;20156;47.486;12.074;2023-02-13T01:40:11;17.47;;;12.13;;
33858;SDS011;20156;47.486;12.074;2023-02-13T01:42:37;18.87;;;13.00;;
33858;SDS011;20156;47.486;12.074;2023-02-13T01:45:04;19.47;;;12.60;;
33858;SDS011;20156;47.486;12.074;2023-02-13T01:47:44;22.87;;;13.53;;
33858;SDS011;20156;47.486;12.074;2023-02-13T01:50:24;21.47;;;13.83;;
33858;SDS011;20156;47.486;12.074;2023-02-13T01:53:01;20.97;;;13.77;;
33858;SDS011;20156;47.486;12.074;2023-02-13T01:55:33;17.10;;;12.80;;
33858;SDS011;20156;47.486;12.074;2023-02-13T01:58:04;19.20;;;12.27;;
33858;SDS011;20156;47.486;12.074;2023-02-13T02:00:34;19.23;;;12.30;;
33858;SDS011;20156;47.486;12.074;2023-02-13T02:03:07;18.47;;;12.03;;
33858;SDS011;20156;47.486;12.074;2023-02-13T02:05:37;17.97;;;12.93;;
33858;SDS011;20156;47.486;12.074;2023-02-13T02:08:03;18.87;;;13.20;;
33858;SDS011;20156;47.486;12.074;2023-02-13T02:10:32;21.03;;;13.03;;
33858;SDS011;20156;47.486;12.074;2023-02-13T02:13:12;21.20;;;13.57;;
33858;SDS011;20156;47.486;12.074;2023-02-13T02:15:41;19.30;;;13.17;;
33858;SDS011;20156;47.486;12.074;2023-02-13T02:18:14;20.60;;;14.10;;
33858;SDS011;20156;47.486;12.074;2023-02-13T02:39:24;18.53;;;13.60;;
33858;SDS011;20156;47.486;12.074;2023-02-13T02:45:08;19.20;;;13.53;;
33858;SDS011;20156;47.486;12.074;2023-02-13T02:47:51;17.20;;;13.07;;
33858;SDS011;20156;47.486;12.074;2023-02-13T02:50:50;20.00;;;12.33;;
33858;SDS011;20156;47.486;12.074;2023-02-13T02:56:10;17.77;;;13.83;;
33858;SDS011;20156;47.486;12.074;2023-02-13T02:58:37;18.70;;;13.03;;
33858;SDS011;20156;47.486;12.074;2023-02-13T03:01:29;19.03;;;13.73;;
33858;SDS011;20156;47.486;12.074;2023-02-13T03:04:21;19.07;;;14.10;;
33858;SDS011;20156;47.486;12.074;2023-02-13T03:07:10;21.40;;;14.63;;
33858;SDS011;20156;47.486;12.074;2023-02-13T03:09:40;21.13;;;14.87;;
33858;SDS011;20156;47.486;12.074;2023-02-13T03:12:39;19.53;;;14.33;;
33858;SDS011;20156;47.486;12.074;2023-02-13T03:15:28;21.47;;;14.40;;
33858;SDS011;20156;47.486;12.074;2023-02-13T03:17:54;20.57;;;14.63;;
33858;SDS011;20156;47.486;12.074;2023-02-13T03:20:59;22.30;;;14.30;;
33858;SDS011;20156;47.486;12.074;2023-02-13T03:23:59;19.30;;;14.20;;
33858;SDS011;20156;47.486;12.074;2023-02-13T03:26:30;19.40;;;14.03;;
33858;SDS011;20156;47.486;12.074;2023-02-13T03:29:31;17.87;;;13.13;;
33858;SDS011;20156;47.486;12.074;2023-02-13T03:32:38;20.03;;;13.10;;
33858;SDS011;20156;47.486;12.074;2023-02-13T03:35:11;15.77;;;12.33;;
33858;SDS011;20156;47.486;12.074;2023-02-13T03:38:15;17.80;;;12.50;;
33858;SDS011;20156;47.486;12.074;2023-02-13T03:40:56;26.43;;;14.97;;
33858;SDS011;20156;47.486;12.074;2023-02-13T03:46:54;20.33;;;14.10;;
33858;SDS011;20156;47.486;12.074;2023-02-13T03:49:24;24.03;;;14.47;;
33858;SDS011;20156;47.486;12.074;2023-02-13T03:54:56;23.13;;;14.77;;
33858;SDS011;20156;47.486;12.074;2023-02-13T03:57:43;22.47;;;15.13;;
33858;SDS011;20156;47.486;12.074;2023-02-13T04:00:32;22.33;;;14.50;;
33858;SDS011;20156;47.486;12.074;2023-02-13T04:05:35;21.33;;;13.47;;
33858;SDS011;20156;47.486;12.074;2023-02-13T04:08:07;19.47;;;13.57;;
33858;SDS011;20156;47.486;12.074;2023-02-13T04:10:33;20.57;;;14.47;;
33858;SDS011;20156;47.486;12.074;2023-02-13T04:16:11;24.00;;;16.27;;
33858;SDS011;20156;47.486;12.074;2023-02-13T04:18:42;22.07;;;15.27;;
33858;SDS011;20156;47.486;12.074;2023-02-13T04:21:09;21.57;;;15.13;;
33858;SDS011;20156;47.486;12.074;2023-02-13T04:23:34;21.80;;;15.93;;
33858;SDS011;20156;47.486;12.074;2023-02-13T04:26:01;21.17;;;15.37;;
33858;SDS011;20156;47.486;12.074;2023-02-13T04:28:29;21.93;;;14.97;;
33858;SDS011;20156;47.486;12.074;2023-02-13T04:30:54;21.00;;;15.97;;
33858;SDS011;20156;47.486;12.074;2023-02-13T04:33:21;20.37;;;14.33;;
33858;SDS011;20156;47.486;12.074;2023-02-13T04:35:46;20.80;;;14.10;;
33858;SDS011;20156;47.486;12.074;2023-02-13T04:38:12;18.20;;;14.03;;
33858;SDS011;20156;47.486;12.074;2023-02-13T04:40:37;20.30;;;15.00;;
33858;SDS011;20156;47.486;12.074;2023-02-13T04:43:03;21.70;;;14.07;;
33858;SDS011;20156;47.486;12.074;2023-02-13T04:45:28;19.37;;;14.63;;
33858;SDS011;20156;47.486;12.074;2023-02-13T04:47:54;19.73;;;13.30;;
33858;SDS011;20156;47.486;12.074;2023-02-13T04:50:21;18.20;;;13.43;;
33858;SDS011;20156;47.486;12.074;2023-02-13T04:52:49;20.63;;;14.27;;
33858;SDS011;20156;47.486;12.074;2023-02-13T04:55:17;18.60;;;14.13;;
33858;SDS011;20156;47.486;12.074;2023-02-13T04:57:43;19.40;;;13.53;;
33858;SDS011;20156;47.486;12.074;2023-02-13T05:00:08;20.17;;;14.23;;
33858;SDS011;20156;47.486;12.074;2023-02-13T05:02:35;17.50;;;12.60;;
33858;SDS011;20156;47.486;12.074;2023-02-13T05:05:00;19.10;;;12.27;;
33858;SDS011;20156;47.486;12.074;2023-02-13T05:07:26;14.90;;;11.97;;
33858;SDS011;20156;47.486;12.074;2023-02-13T05:09:51;19.27;;;13.70;;
33858;SDS011;20156;47.486;12.074;2023-02-13T05:12:16;18.87;;;13.30;;
33858;SDS011;20156;47.486;12.074;2023-02-13T05:14:42;19.33;;;13.43;;
33858;SDS011;20156;47.486;12.074;2023-02-13T05:17:07;19.43;;;13.33;;
33858;SDS011;20156;47.486;12.074;2023-02-13T05:19:33;19.57;;;13.47;;
33858;SDS011;20156;47.486;12.074;2023-02-13T05:21:58;18.87;;;13.73;;
33858;SDS011;20156;47.486;12.074;2023-02-13T05:24:42;32.67;;;20.77;;
33858;SDS011;20156;47.486;12.074;2023-02-13T05:27:07;31.50;;;19.20;;
33858;SDS011;20156;47.486;12.074;2023-02-13T05:29:33;21.63;;;14.03;;
33858;SDS011;20156;47.486;12.074;2023-02-13T05:31:58;22.47;;;15.57;;
33858;SDS011;20156;47.486;12.074;2023-02-13T05:34:25;26.13;;;16.83;;
33858;SDS011;20156;47.486;12.074;2023-02-13T05:36:52;35.03;;;22.20;;
33858;SDS011;20156;47.486;12.074;2023-02-13T05:39:17;33.63;;;20.50;;
33858;SDS011;20156;47.486;12.074;2023-02-13T05:41:43;33.93;;;19.23;;
33858;SDS011;20156;47.486;12.074;2023-02-13T05:44:10;30.57;;;18.60;;
33858;SDS011;20156;47.486;12.074;2023-02-13T05:46:37;32.27;;;19.83;;
33858;SDS011;20156;47.486;12.074;2023-02-13T05:49:04;37.90;;;21.40;;
33858;SDS011;20156;47.486;12.074;2023-02-13T05:51:29;34.77;;;20.83;;
33858;SDS011;20156;47.486;12.074;2023-02-13T05:53:55;33.10;;;20.30;;
33858;SDS011;20156;47.486;12.074;2023-02-13T05:56:20;31.43;;;18.93;;
33858;SDS011;20156;47.486;12.074;2023-02-13T05:58:46;25.17;;;16.80;;
33858;SDS011;20156;47.486;12.074;2023-02-13T06:01:14;20.93;;;14.97;;
33858;SDS011;20156;47.486;12.074;2023-02-13T06:03:40;27.23;;;15.63;;
33858;SDS011;20156;47.486;12.074;2023-02-13T06:06:05;19.60;;;14.07;;
33858;SDS011;20156;47.486;12.074;2023-02-13T06:08:31;23.77;;;15.13;;
33858;SDS011;20156;47.486;12.074;2023-02-13T06:10:56;22.83;;;14.47;;
33858;SDS011;20156;47.486;12.074;2023-02-13T06:13:22;20.77;;;14.20;;
33858;SDS011;20156;47.486;12.074;2023-02-13T06:15:47;19.17;;;13.03;;
33858;SDS011;20156;47.486;12.074;2023-02-13T06:18:14;20.37;;;13.93;;
33858;SDS011;20156;47.486;12.074;2023-02-13T06:20:40;21.20;;;13.67;;
33858;SDS011;20156;47.486;12.074;2023-02-13T06:23:06;17.00;;;11.90;;
33858;SDS011;20156;47.486;12.074;2023-02-13T06:25:32;22.13;;;13.53;;
33858;SDS011;20156;47.486;12.074;2023-02-13T06:27:59;20.23;;;13.80;;
33858;SDS011;20156;47.486;12.074;2023-02-13T06:30:25;23.13;;;15.60;;
33858;SDS011;20156;47.486;12.074;2023-02-13T06:32:50;21.90;;;14.43;;
33858;SDS011;20156;47.486;12.074;2023-02-13T06:35:16;19.80;;;13.73;;
33858;SDS011;20156;47.486;12.074;2023-02-13T06:37:42;16.60;;;12.40;;
33858;SDS011;20156;47.486;12.074;2023-02-13T06:40:08;16.30;;;11.93;;
33858;SDS011;20156;47.486;12.074;2023-02-13T06:42:34;17.43;;;12.30;;
33858;SDS011;20156;47.486;12.074;2023-02-13T06:44:59;18.10;;;12.80;;
33858;SDS011;20156;47.486;12.074;2023-02-13T06:47:25;21.57;;;14.47;;
33858;SDS011;20156;47.486;12.074;2023-02-13T06:49:50;16.50;;;11.97;;
33858;SDS011;20156;47.486;12.074;2023-02-13T06:52:16;16.87;;;13.00;;
33858;SDS011;20156;47.486;12.074;2023-02-13T06:54:41;26.97;;;19.50;;
33858;SDS011;20156;47.486;12.074;2023-02-13T06:57:07;31.97;;;21.67;;
33858;SDS011;20156;47.486;12.074;2023-02-13T06:59:32;34.53;;;23.30;;
33858;SDS011;20156;47.486;12.074;2023-02-13T07:01:58;31.03;;;20.43;;
33858;SDS011;20156;47.486;12.074;2023-02-13T07:04:23;28.13;;;19.20;;
33858;SDS011;20156;47.486;12.074;2023-02-13T07:06:49;26.27;;;17.93;;
33858;SDS011;20156;47.486;12.074;2023-02-13T07:09:14;32.03;;;20.17;;
33858;SDS011;20156;47.486;12.074;2023-02-13T07:11:40;25.80;;;18.30;;
33858;SDS011;20156;47.486;12.074;2023-02-13T07:14:06;25.03;;;17.93;;
33858;SDS011;20156;47.486;12.074;2023-02-13T07:16:32;27.00;;;18.43;;
33858;SDS011;20156;47.486;12.074;2023-02-13T07:18:58;40.90;;;26.33;;
33858;SDS011;20156;47.486;12.074;2023-02-13T07:21:23;29.73;;;20.57;;
33858;SDS011;20156;47.486;12.074;2023-02-13T07:23:49;29.93;;;21.47;;
33858;SDS011;20156;47.486;12.074;2023-02-13T07:26:15;26.33;;;20.03;;
33858;SDS011;20156;47.486;12.074;2023-02-13T07:28:41;34.47;;;28.30;;
33858;SDS011;20156;47.486;12.074;2023-02-13T07:31:06;29.43;;;22.40;;
33858;SDS011;20156;47.486;12.074;2023-02-13T07:33:32;30.90;;;19.37;;
33858;SDS011;20156;47.486;12.074;2023-02-13T07:36:00;27.70;;;19.53;;
33858;SDS011;20156;47.486;12.074;2023-02-13T07:38:28;26.83;;;19.83;;
33858;SDS011;20156;47.486;12.074;2023-02-13T07:40:58;46.60;;;34.97;;
33858;SDS011;20156;47.486;12.074;2023-02-13T07:43:24;51.17;;;39.03;;
33858;SDS011;20156;47.486;12.074;2023-02-13T07:45:50;51.43;;;38.40;;
33858;SDS011;20156;47.486;12.074;2023-02-13T07:48:20;48.00;;;33.63;;
33858;SDS011;20156;47.486;12.074;2023-02-13T07:50:51;50.80;;;37.90;;
33858;SDS011;20156;47.486;12.074;2023-02-13T07:53:16;44.87;;;34.57;;
33858;SDS011;20156;47.486;12.074;2023-02-13T07:55:42;35.43;;;25.67;;
33858;SDS011;20156;47.486;12.074;2023-02-13T07:58:07;32.37;;;22.80;;
33858;SDS011;20156;47.486;12.074;2023-02-13T08:00:32;30.70;;;22.77;;
33858;SDS011;20156;47.486;12.074;2023-02-13T08:02:58;30.67;;;20.33;;
33858;SDS011;20156;47.486;12.074;2023-02-13T08:05:24;26.10;;;19.67;;
33858;SDS011;20156;47.486;12.074;2023-02-13T08:07:50;28.70;;;19.57;;
33858;SDS011;20156;47.486;12.074;2023-02-13T08:10:16;29.50;;;19.80;;
33858;SDS011;20156;47.486;12.074;2023-02-13T08:13:00;24.60;;;17.40;;
33858;SDS011;20156;47.486;12.074;2023-02-13T08:15:26;47.47;;;30.60;;
33858;SDS011;20156;47.486;12.074;2023-02-13T08:17:51;51.70;;;32.20;;
33858;SDS011;20156;47.486;12.074;2023-02-13T08:20:17;59.13;;;35.20;;
33858;SDS011;20156;47.486;12.074;2023-02-13T08:22:42;48.90;;;30.50;;
33858;SDS011;20156;47.486;12.074;2023-02-13T08:25:08;37.40;;;25.03;;
33858;SDS011;20156;47.486;12.074;2023-02-13T08:27:33;26.23;;;18.83;;
33858;SDS011;20156;47.486;12.074;2023-02-13T08:29:59;22.40;;;16.70;;
33858;SDS011;20156;47.486;12.074;2023-02-13T08:32:25;21.47;;;16.03;;
33858;SDS011;20156;47.486;12.074;2023-02-13T08:34:51;19.40;;;14.60;;
33858;SDS011;20156;47.486;12.074;2023-02-13T08:37:16;23.00;;;15.03;;
33858;SDS011;20156;47.486;12.074;2023-02-13T08:39:42;20.67;;;15.33;;
33858;SDS011;20156;47.486;12.074;2023-02-13T08:42:08;20.03;;;15.10;;
33858;SDS011;20156;47.486;12.074;2023-02-13T08:44:34;19.07;;;15.27;;
33858;SDS011;20156;47.486;12.074;2023-02-13T08:46:59;20.37;;;15.80;;
33858;SDS011;20156;47.486;12.074;2023-02-13T08:49:28;20.53;;;14.90;;
33858;SDS011;20156;47.486;12.074;2023-02-13T08:51:54;19.00;;;14.87;;
33858;SDS011;20156;47.486;12.074;2023-02-13T08:54:20;22.43;;;15.13;;
33858;SDS011;20156;47.486;12.074;2023-02-13T08:56:45;19.37;;;14.80;;
33858;SDS011;20156;47.486;12.074;2023-02-13T08:59:11;28.03;;;22.13;;
33858;SDS011;20156;47.486;12.074;2023-02-13T09:01:37;25.20;;;19.43;;
33858;SDS011;20156;47.486;12.074;2023-02-13T09:04:03;25.27;;;19.97;;
33858;SDS011;20156;47.486;12.074;2023-02-13T09:06:28;14.07;;;11.70;;
33858;SDS011;20156;47.486;12.074;2023-02-13T09:08:54;15.20;;;11.03;;
33858;SDS011;20156;47.486;12.074;2023-02-13T09:11:19;15.77;;;11.83;;
33858;SDS011;20156;47.486;12.074;2023-02-13T09:13:47;10.60;;;8.47;;
33858;SDS011;20156;47.486;12.074;2023-02-13T09:16:21;16.03;;;12.30;;
33858;SDS011;20156;47.486;12.074;2023-02-13T09:18:47;29.43;;;21.90;;
33858;SDS011;20156;47.486;12.074;2023-02-13T09:21:14;29.57;;;20.77;;
33858;SDS011;20156;47.486;12.074;2023-02-13T09:23:40;23.00;;;17.73;;
33858;SDS011;20156;47.486;12.074;2023-02-13T09:26:07;12.20;;;9.70;;
33858;SDS011;20156;47.486;12.074;2023-02-13T09:28:35;9.20;;;7.93;;
33858;SDS011;20156;47.486;12.074;2023-02-13T09:31:08;8.57;;;7.20;;
33858;SDS011;20156;47.486;12.074;2023-02-13T09:33:41;7.17;;;6.47;;
33858;SDS011;20156;47.486;12.074;2023-02-13T09:36:07;15.03;;;8.67;;
33858;SDS011;20156;47.486;12.074;2023-02-13T09:38:38;8.63;;;7.63;;
33858;SDS011;20156;47.486;12.074;2023-02-13T09:41:22;8.33;;;7.43;;
33858;SDS011;20156;47.486;12.074;2023-02-13T09:46:35;7.27;;;5.10;;
33858;SDS011;20156;47.486;12.074;2023-02-13T09:49:07;8.67;;;6.23;;
33858;SDS011;20156;47.486;12.074;2023-02-13T09:51:40;7.67;;;5.73;;
33858;SDS011;20156;47.486;12.074;2023-02-13T09:54:11;16.17;;;8.60;;
33858;SDS011;20156;47.486;12.074;2023-02-13T09:56:43;8.77;;;6.00;;
33858;SDS011;20156;47.486;12.074;2023-02-13T10:08:04;6.10;;;5.13;;
33858;SDS011;20156;47.486;12.074;2023-02-13T10:10:54;10.90;;;5.93;;
33858;SDS011;20156;47.486;12.074;2023-02-13T10:16:13;6.00;;;4.70;;
33858;SDS011;20156;47.486;12.074;2023-02-13T10:21:23;6.47;;;5.50;;
33858;SDS011;20156;47.486;12.074;2023-02-13T10:23:58;6.77;;;5.37;;
33858;SDS011;20156;47.486;12.074;2023-02-13T10:26:44;4.70;;;4.20;;
33858;SDS011;20156;47.486;12.074;2023-02-13T10:32:16;5.50;;;4.87;;
33858;SDS011;20156;47.486;12.074;2023-02-13T10:34:46;5.47;;;4.90;;
33858;SDS011;20156;47.486;12.074;2023-02-13T10:37:15;6.67;;;5.03;;
33858;SDS011;20156;47.486;12.074;2023-02-13T10:39:43;4.97;;;4.13;;
33858;SDS011;20156;47.486;12.074;2023-02-13T10:50:54;6.10;;;5.17;;
33858;SDS011;20156;47.486;12.074;2023-02-13T10:53:41;5.03;;;4.30;;
33858;SDS011;20156;47.486;12.074;2023-02-13T10:56:19;5.73;;;4.37;;
33858;SDS011;20156;47.486;12.074;2023-02-13T11:04:03;11.00;;;8.10;;
33858;SDS011;20156;47.486;12.074;2023-02-13T11:06:41;20.50;;;13.73;;
33858;SDS011;20156;47.486;12.074;2023-02-13T11:09:13;5.63;;;4.40;;
33858;SDS011;20156;47.486;12.074;2023-02-13T11:11:41;22.90;;;20.13;;
33858;SDS011;20156;47.486;12.074;2023-02-13T11:14:15;14.00;;;11.73;;
33858;SDS011;20156;47.486;12.074;2023-02-13T11:16:58;8.37;;;7.13;;
33858;SDS011;20156;47.486;12.074;2023-02-13T11:24:38;9.37;;;8.40;;
33858;SDS011;20156;47.486;12.074;2023-02-13T11:27:06;9.70;;;8.70;;
33858;SDS011;20156;47.486;12.074;2023-02-13T11:29:37;5.93;;;5.30;;
33858;SDS011;20156;47.486;12.074;2023-02-13T11:32:18;9.10;;;8.20;;
33858;SDS011;20156;47.486;12.074;2023-02-13T11:34:46;7.60;;;5.93;;
33858;SDS011;20156;47.486;12.074;2023-02-13T11:37:16;4.93;;;4.37;;
33858;SDS011;20156;47.486;12.074;2023-02-13T11:39:45;5.37;;;4.60;;
33858;SDS011;20156;47.486;12.074;2023-02-13T11:47:39;4.20;;;3.33;;
33858;SDS011;20156;47.486;12.074;2023-02-13T11:50:29;4.90;;;3.90;;
33858;SDS011;20156;47.486;12.074;2023-02-13T11:55:31;4.20;;;3.63;;
33858;SDS011;20156;47.486;12.074;2023-02-13T11:58:03;5.30;;;3.70;;
33858;SDS011;20156;47.486;12.074;2023-02-13T12:00:48;4.63;;;3.30;;
33858;SDS011;20156;47.486;12.074;2023-02-13T12:06:03;4.83;;;4.07;;
33858;SDS011;20156;47.486;12.074;2023-02-13T12:08:31;6.13;;;3.80;;
33858;SDS011;20156;47.486;12.074;2023-02-13T12:11:02;3.70;;;3.30;;
33858;SDS011;20156;47.486;12.074;2023-02-13T12:13:34;3.43;;;3.07;;
33858;SDS011;20156;47.486;12.074;2023-02-13T12:16:05;4.53;;;3.27;;
33858;SDS011;20156;47.486;12.074;2023-02-13T12:18:53;3.10;;;2.80;;
33858;SDS011;20156;47.486;12.074;2023-02-13T12:32:19;5.43;;;3.67;;
33858;SDS011;20156;47.486;12.074;2023-02-13T12:35:03;4.95;;;3.30;;
33858;SDS011;20156;47.486;12.074;2023-02-13T12:48:39;5.63;;;4.40;;
33858;SDS011;20156;47.486;12.074;2023-02-13T12:54:19;5.07;;;4.25;;
33858;SDS011;20156;47.486;12.074;2023-02-13T13:10:14;7.70;;;5.00;;
33858;SDS011;20156;47.486;12.074;2023-02-13T13:16:21;6.40;;;5.63;;
33858;SDS011;20156;47.486;12.074;2023-02-13T13:26:42;6.68;;;4.60;;
33858;SDS011;20156;47.486;12.074;2023-02-13T13:29:14;6.22;;;4.35;;
33858;SDS011;20156;47.486;12.074;2023-02-13T13:31:52;6.43;;;4.20;;
33858;SDS011;20156;47.486;12.074;2023-02-13T13:34:22;5.68;;;4.30;;
33858;SDS011;20156;47.486;12.074;2023-02-13T13:37:03;31.25;;;15.18;;
33858;SDS011;20156;47.486;12.074;2023-02-13T13:39:54;6.13;;;4.22;;
33858;SDS011;20156;47.486;12.074;2023-02-13T13:48:26;5.57;;;4.28;;
33858;SDS011;20156;47.486;12.074;2023-02-13T13:51:06;5.60;;;4.25;;
33858;SDS011;20156;47.486;12.074;2023-02-13T13:53:39;6.30;;;4.47;;
33858;SDS011;20156;47.486;12.074;2023-02-13T13:56:24;6.35;;;4.13;;
33858;SDS011;20156;47.486;12.074;2023-02-13T13:58:50;3.78;;;3.47;;
33858;SDS011;20156;47.486;12.074;2023-02-13T14:04:00;4.18;;;3.78;;
33858;SDS011;20156;47.486;12.074;2023-02-13T14:11:52;4.28;;;3.63;;
33858;SDS011;20156;47.486;12.074;2023-02-13T14:17:11;4.00;;;3.60;;
33858;SDS011;20156;47.486;12.074;2023-02-13T14:19:39;5.90;;;3.35;;
33858;SDS011;20156;47.486;12.074;2023-02-13T14:24:54;3.75;;;3.25;;
33858;SDS011;20156;47.486;12.074;2023-02-13T14:29:55;5.82;;;3.75;;
33858;SDS011;20156;47.486;12.074;2023-02-13T14:32:30;5.00;;;3.67;;
33858;SDS011;20156;47.486;12.074;2023-02-13T14:35:05;4.75;;;4.30;;
33858;SDS011;20156;47.486;12.074;2023-02-13T14:37:47;9.18;;;7.45;;
33858;SDS011;20156;47.486;12.074;2023-02-13T14:42:55;12.65;;;9.77;;
33858;SDS011;20156;47.486;12.074;2023-02-13T14:45:26;15.18;;;11.45;;
33858;SDS011;20156;47.486;12.074;2023-02-13T14:47:56;12.20;;;10.40;;
33858;SDS011;20156;47.486;12.074;2023-02-13T14:50:27;10.48;;;8.23;;
33858;SDS011;20156;47.486;12.074;2023-02-13T14:53:14;10.48;;;7.13;;
33858;SDS011;20156;47.486;12.074;2023-02-13T14:55:45;6.78;;;5.10;;
33858;SDS011;20156;47.486;12.074;2023-02-13T14:58:30;9.00;;;5.90;;
33858;SDS011;20156;47.486;12.074;2023-02-13T15:01:05;8.13;;;6.13;;
33858;SDS011;20156;47.486;12.074;2023-02-13T15:03:46;7.75;;;6.63;;
33858;SDS011;20156;47.486;12.074;2023-02-13T15:06:32;11.82;;;9.38;;
33858;SDS011;20156;47.486;12.074;2023-02-13T15:09:02;8.48;;;6.55;;
33858;SDS011;20156;47.486;12.074;2023-02-13T15:11:38;29.52;;;18.65;;
33858;SDS011;20156;47.486;12.074;2023-02-13T15:17:06;11.18;;;9.82;;
33858;SDS011;20156;47.486;12.074;2023-02-13T15:19:46;7.78;;;6.40;;
33858;SDS011;20156;47.486;12.074;2023-02-13T15:22:18;8.05;;;5.25;;
33858;SDS011;20156;47.486;12.074;2023-02-13T15:24:46;7.70;;;5.63;;
33858;SDS011;20156;47.486;12.074;2023-02-13T15:27:17;7.87;;;5.40;;
33858;SDS011;20156;47.486;12.074;2023-02-13T15:29:55;5.83;;;5.07;;
33858;SDS011;20156;47.486;12.074;2023-02-13T15:32:33;9.33;;;5.90;;
33858;SDS011;20156;47.486;12.074;2023-02-13T15:35:20;7.67;;;5.70;;
33858;SDS011;20156;47.486;12.074;2023-02-13T15:37:51;5.80;;;4.27;;
33858;SDS011;20156;47.486;12.074;2023-02-13T15:40:24;7.20;;;4.77;;
33858;SDS011;20156;47.486;12.074;2023-02-13T15:42:52;6.67;;;4.50;;
33858;SDS011;20156;47.486;12.074;2023-02-13T15:45:24;6.23;;;4.37;;
33858;SDS011;20156;47.486;12.074;2023-02-13T15:47:52;4.70;;;3.70;;
33858;SDS011;20156;47.486;12.074;2023-02-13T15:52:48;6.83;;;5.00;;
33858;SDS011;20156;47.486;12.074;2023-02-13T15:55:23;6.17;;;4.23;;
33858;SDS011;20156;47.486;12.074;2023-02-13T15:57:52;6.90;;;4.40;;
33858;SDS011;20156;47.486;12.074;2023-02-13T16:00:30;5.30;;;3.53;;
33858;SDS011;20156;47.486;12.074;2023-02-13T16:02:59;6.27;;;4.13;;
33858;SDS011;20156;47.486;12.074;2023-02-13T16:05:27;5.10;;;4.13;;
33858;SDS011;20156;47.486;12.074;2023-02-13T16:07:57;9.27;;;6.47;;
33858;SDS011;20156;47.486;12.074;2023-02-13T16:12:57;6.73;;;5.13;;
33858;SDS011;20156;47.486;12.074;2023-02-13T16:15:27;7.37;;;4.90;;
33858;SDS011;20156;47.486;12.074;2023-02-13T16:17:55;6.53;;;4.07;;
33858;SDS011;20156;47.486;12.074;2023-02-13T16:20:23;6.30;;;4.97;;
33858;SDS011;20156;47.486;12.074;2023-02-13T16:22:52;6.70;;;4.40;;
33858;SDS011;20156;47.486;12.074;2023-02-13T16:25:25;5.00;;;4.50;;
33858;SDS011;20156;47.486;12.074;2023-02-13T16:30:44;3.73;;;3.40;;
33858;SDS011;20156;47.486;12.074;2023-02-13T16:33:27;6.03;;;4.60;;
33858;SDS011;20156;47.486;12.074;2023-02-13T16:38:37;7.37;;;5.37;;
33858;SDS011;20156;47.486;12.074;2023-02-13T16:43:49;8.77;;;6.13;;
33858;SDS011;20156;47.486;12.074;2023-02-13T16:48:58;9.23;;;6.30;;
33858;SDS011;20156;47.486;12.074;2023-02-13T16:53:58;8.33;;;5.50;;
33858;SDS011;20156;47.486;12.074;2023-02-13T16:56:28;9.77;;;6.67;;
33858;SDS011;20156;47.486;12.074;2023-02-13T16:59:13;11.47;;;8.50;;
33858;SDS011;20156;47.486;12.074;2023-02-13T17:01:46;8.87;;;7.37;;
33858;SDS011;20156;47.486;12.074;2023-02-13T17:04:26;8.70;;;5.90;;
33858;SDS011;20156;47.486;12.074;2023-02-13T17:06:53;6.90;;;5.03;;
33858;SDS011;20156;47.486;12.074;2023-02-13T17:09:20;8.13;;;5.00;;
33858;SDS011;20156;47.486;12.074;2023-02-13T17:11:49;7.23;;;5.70;;
33858;SDS011;20156;47.486;12.074;2023-02-13T17:14:16;6.53;;;5.10;;
33858;SDS011;20156;47.486;12.074;2023-02-13T17:16:43;7.77;;;6.17;;
33858;SDS011;20156;47.486;12.074;2023-02-13T17:19:09;7.80;;;5.97;;
33858;SDS011;20156;47.486;12.074;2023-02-13T17:21:35;9.63;;;5.77;;
33858;SDS011;20156;47.486;12.074;2023-02-13T17:24:01;7.37;;;5.80;;
33858;SDS011;20156;47.486;12.074;2023-02-13T17:26:27;8.33;;;6.60;;
33858;SDS011;20156;47.486;12.074;2023-02-13T17:28:52;8.60;;;6.70;;
33858;SDS011;20156;47.486;12.074;2023-02-13T17:31:18;10.33;;;7.47;;
33858;SDS011;20156;47.486;12.074;2023-02-13T17:33:44;10.13;;;6.47;;
33858;SDS011;20156;47.486;12.074;2023-02-13T17:36:10;10.93;;;7.80;;
33858;SDS011;20156;47.486;12.074;2023-02-13T17:38:37;10.80;;;7.37;;